Flag Island, Minnesota
Current Conditions -  °F | °C
As of 1:14 AM on Sunday 23 Nov 2014 (Local Time) from KFGN Reporting Station
Overcast Overcast  
Wind Chill: 28°   Ceiling: 11000
Heat Index: 34°   Visibility: 10mi
Dew Point: 30°   Wind: 7mph
Humidity: 87%   Direction: 140°SE
Pressure: 29.37"   Gusts: NA
Location:  49.32°N, 94.9°W
Report Text: KFGN 230714Z AUTO 14006KT 10SM OVC110 01/M01 A2937 RMK AO2
Loading
Personal Weather Stations






























Interactive Weather Map New forecast layout! Learn more

10-Day Weather Forecast

Advertisements
Track Severe Weather on mobile